createdAt,value
2019-02-06T00:00:45.278Z,31.87
2019-02-06T00:03:52.453Z,35.45
2019-02-06T00:06:59.699Z,37.58
2019-02-06T00:10:07.301Z,31.68
2019-02-06T00:13:14.261Z,33.55
2019-02-06T00:16:21.641Z,25.70
2019-02-06T00:19:28.629Z,32.90
2019-02-06T00:22:35.664Z,26.82
2019-02-06T00:25:43.098Z,32.75
2019-02-06T00:28:50.113Z,28.23
2019-02-06T00:31:57.001Z,26.35
2019-02-06T00:35:04.950Z,30.62
2019-02-06T00:38:12.126Z,36.88
2019-02-06T00:41:21.884Z,30.27
2019-02-06T00:44:27.944Z,29.98
2019-02-06T00:47:34.865Z,21.87
2019-02-06T00:50:41.820Z,26.23
2019-02-06T00:53:48.756Z,32.28
2019-02-06T00:56:55.643Z,28.12
2019-02-06T01:00:02.689Z,25.75
2019-02-06T01:03:10.698Z,24.57
2019-02-06T01:06:17.576Z,31.52
2019-02-06T01:09:24.841Z,34.15
2019-02-06T01:12:31.735Z,33.88
2019-02-06T01:15:38.817Z,32.05
2019-02-06T01:18:45.723Z,26.10
2019-02-06T01:21:52.798Z,26.42
2019-02-06T01:24:59.723Z,36.45
2019-02-06T01:28:06.710Z,34.35
2019-02-06T01:31:21.468Z,28.12
2019-02-06T01:34:28.497Z,37.35
2019-02-06T01:37:36.540Z,26.40
2019-02-06T01:40:43.492Z,26.62
2019-02-06T01:43:50.409Z,27.50
2019-02-06T01:46:57.439Z,29.32
2019-02-06T01:50:06.073Z,34.63
2019-02-06T01:53:13.435Z,34.90
2019-02-06T01:56:22.006Z,30.23
2019-02-06T01:59:28.958Z,32.42
2019-02-06T02:02:35.984Z,27.95
2019-02-06T02:05:43.133Z,36.53
2019-02-06T02:08:57.538Z,29.65
2019-02-06T02:12:04.737Z,27.82
2019-02-06T02:15:14.854Z,37.48
2019-02-06T02:18:25.136Z,31.02
2019-02-06T02:21:32.284Z,28.83
2019-02-06T02:24:40.991Z,27.62
2019-02-06T02:27:48.295Z,24.27
2019-02-06T02:30:56.856Z,28.05
2019-02-06T02:34:03.758Z,24.65
2019-02-06T02:37:10.979Z,32.65
2019-02-06T02:40:20.134Z,30.65
2019-02-06T02:43:27.155Z,31.95
2019-02-06T02:46:34.276Z,30.17
2019-02-06T02:49:41.287Z,23.25
2019-02-06T02:52:48.329Z,22.90
2019-02-06T02:55:55.300Z,22.85
2019-02-06T02:59:02.249Z,30.12
2019-02-06T03:02:29.123Z,26.23
2019-02-06T03:05:37.142Z,22.65
2019-02-06T03:08:44.115Z,27.60
2019-02-06T03:11:51.076Z,25.25
2019-02-06T03:14:58.060Z,26.02
2019-02-06T03:18:05.046Z,24.90
2019-02-06T03:21:12.364Z,24.00
2019-02-06T03:24:19.829Z,25.17
2019-02-06T03:27:26.830Z,28.05
2019-02-06T03:30:33.775Z,23.00
2019-02-06T03:33:40.726Z,26.55
2019-02-06T03:36:47.798Z,30.75
2019-02-06T03:39:54.770Z,28.17
2019-02-06T03:43:02.115Z,35.13
2019-02-06T03:46:09.358Z,25.52
2019-02-06T03:49:16.321Z,26.23
2019-02-06T03:52:26.390Z,21.97
2019-02-06T03:55:33.308Z,24.82
2019-02-06T03:58:40.422Z,28.10
2019-02-06T04:01:47.429Z,27.05
2019-02-06T04:04:55.495Z,24.57
2019-02-06T04:08:02.397Z,30.62
2019-02-06T04:11:09.544Z,26.82
2019-02-06T04:14:16.893Z,25.12
2019-02-06T04:17:23.937Z,29.40
2019-02-06T04:20:31.056Z,22.67
2019-02-06T04:23:40.396Z,23.00
2019-02-06T04:26:47.295Z,24.07
2019-02-06T04:29:55.558Z,29.25
2019-02-06T04:33:02.825Z,31.62
2019-02-06T04:36:09.841Z,39.80
2019-02-06T04:39:19.771Z,26.75
2019-02-06T04:42:27.333Z,34.10
2019-02-06T04:45:34.642Z,23.85
2019-02-06T04:48:41.608Z,22.17
2019-02-06T04:51:48.583Z,27.85
2019-02-06T04:54:55.874Z,25.10
2019-02-06T04:58:02.823Z,24.40
2019-02-06T05:01:09.743Z,22.27
2019-02-06T05:04:16.687Z,23.92
2019-02-06T05:07:23.853Z,20.80
2019-02-06T05:10:30.747Z,23.65
2019-02-06T05:13:38.238Z,26.05
2019-02-06T05:16:45.172Z,25.45
2019-02-06T05:19:52.296Z,21.40
2019-02-06T05:22:59.399Z,23.20
2019-02-06T05:26:06.881Z,26.73
2019-02-06T05:29:13.756Z,28.62
2019-02-06T05:32:20.783Z,25.62
2019-02-06T05:35:27.713Z,23.70
2019-02-06T05:38:35.336Z,25.35
2019-02-06T05:41:42.760Z,20.30
2019-02-06T05:44:49.909Z,22.77
2019-02-06T05:47:58.484Z,22.30
2019-02-06T05:51:05.600Z,28.42
2019-02-06T05:54:12.577Z,21.20
2019-02-06T05:57:19.730Z,23.70
2019-02-06T06:00:33.320Z,25.97
2019-02-06T06:03:40.332Z,21.57
2019-02-06T06:06:47.329Z,21.57
2019-02-06T06:09:55.221Z,19.60
2019-02-06T06:13:02.206Z,21.65
2019-02-06T06:16:09.602Z,23.40
2019-02-06T06:19:16.571Z,23.92
2019-02-06T06:22:24.632Z,20.48
2019-02-06T06:25:31.621Z,25.05
2019-02-06T06:28:38.532Z,25.80
2019-02-06T06:31:45.777Z,21.80
2019-02-06T06:34:52.965Z,20.95
2019-02-06T06:38:02.554Z,23.10
2019-02-06T06:41:08.782Z,24.60
2019-02-06T06:44:16.469Z,22.77
2019-02-06T06:47:23.475Z,19.40
2019-02-06T06:50:30.631Z,20.27
2019-02-06T06:53:37.566Z,25.62
2019-02-06T06:56:44.499Z,20.75
2019-02-06T06:59:51.611Z,22.37
2019-02-06T07:02:59.376Z,25.48
2019-02-06T07:06:06.486Z,20.97
2019-02-06T07:09:16.708Z,19.57
2019-02-06T07:12:23.695Z,28.10
2019-02-06T07:15:33.786Z,22.50
2019-02-06T07:18:40.653Z,29.48
2019-02-06T07:21:47.617Z,23.10
2019-02-06T07:24:54.586Z,22.35
2019-02-06T07:28:01.517Z,25.82
2019-02-06T07:31:08.653Z,21.73
2019-02-06T07:34:15.973Z,19.40
2019-02-06T07:37:22.881Z,27.60
2019-02-06T07:40:29.855Z,19.55
2019-02-06T07:43:36.771Z,20.10
2019-02-06T07:46:45.039Z,22.13
2019-02-06T07:49:52.084Z,21.95
2019-02-06T07:52:59.313Z,23.25
2019-02-06T07:56:06.368Z,21.25
2019-02-06T07:59:13.237Z,21.00
2019-02-06T08:02:22.471Z,18.00
2019-02-06T08:05:29.468Z,22.35
2019-02-06T08:08:36.800Z,19.77
2019-02-06T08:11:43.718Z,20.48
2019-02-06T08:14:50.631Z,23.52
2019-02-06T08:17:57.634Z,27.00
2019-02-06T08:21:04.638Z,19.10
2019-02-06T08:24:11.612Z,18.23
2019-02-06T08:27:18.541Z,20.75
2019-02-06T08:30:36.826Z,19.92
2019-02-06T08:33:44.967Z,19.98
2019-02-06T08:36:53.019Z,21.33
2019-02-06T08:39:59.958Z,17.85
2019-02-06T08:43:07.217Z,21.68
2019-02-06T08:46:14.192Z,23.80
2019-02-06T08:49:21.384Z,18.52
2019-02-06T08:52:29.385Z,21.75
2019-02-06T08:55:38.566Z,18.90
2019-02-06T08:58:45.476Z,20.82
2019-02-06T09:01:52.352Z,19.57
2019-02-06T09:04:59.449Z,18.40
2019-02-06T09:08:07.156Z,18.75
2019-02-06T09:11:14.060Z,22.65
2019-02-06T09:14:22.331Z,19.98
2019-02-06T09:17:32.772Z,25.68
2019-02-06T09:20:39.681Z,23.55
2019-02-06T09:23:46.707Z,21.40
2019-02-06T09:26:55.320Z,22.65
2019-02-06T09:30:02.226Z,22.65
2019-02-06T09:33:09.149Z,19.20
2019-02-06T09:36:16.238Z,23.85
2019-02-06T09:39:23.260Z,20.17
2019-02-06T09:42:32.071Z,18.45
2019-02-06T09:45:38.947Z,21.02
2019-02-06T09:48:46.096Z,20.10
2019-02-06T09:51:54.063Z,22.02
2019-02-06T09:55:01.164Z,20.23
2019-02-06T09:58:09.347Z,19.27
2019-02-06T10:01:17.379Z,20.20
2019-02-06T10:04:24.336Z,21.23
2019-02-06T10:07:31.750Z,20.75
2019-02-06T10:10:39.239Z,20.48
2019-02-06T10:13:47.631Z,19.90
2019-02-06T10:16:54.722Z,23.38
2019-02-06T10:20:02.854Z,23.38
2019-02-06T10:23:12.279Z,21.25
2019-02-06T10:26:19.564Z,23.80
2019-02-06T10:29:26.510Z,20.85
2019-02-06T10:32:33.472Z,17.95
2019-02-06T10:35:42.177Z,19.35
2019-02-06T10:38:51.520Z,19.00
2019-02-06T10:41:58.460Z,23.57
2019-02-06T10:45:10.249Z,23.05
2019-02-06T10:48:18.332Z,18.70
2019-02-06T10:51:25.459Z,19.82
2019-02-06T10:54:32.513Z,22.85
2019-02-06T10:57:39.426Z,24.75
2019-02-06T11:00:53.694Z,18.82
2019-02-06T11:04:00.685Z,18.73
2019-02-06T11:07:08.292Z,18.17
2019-02-06T11:10:16.466Z,21.33
2019-02-06T11:13:23.659Z,31.95
2019-02-06T11:16:30.589Z,34.23
2019-02-06T11:19:38.359Z,19.90
2019-02-06T11:22:45.387Z,21.37
2019-02-06T11:25:52.472Z,19.57
2019-02-06T11:28:59.452Z,39.30
2019-02-06T11:32:06.601Z,24.18
2019-02-06T11:35:14.652Z,22.75
2019-02-06T11:38:21.687Z,21.57
2019-02-06T11:41:29.226Z,18.70
2019-02-06T11:44:37.545Z,19.62
2019-02-06T11:47:44.594Z,17.55
2019-02-06T11:50:51.583Z,20.75
2019-02-06T11:53:58.497Z,18.25
2019-02-06T11:57:08.364Z,17.95
2019-02-06T12:00:23.744Z,18.37
2019-02-06T12:03:31.328Z,19.55
2019-02-06T12:06:38.340Z,19.62
2019-02-06T12:09:45.381Z,17.62
2019-02-06T12:12:52.406Z,18.00
2019-02-06T12:16:01.542Z,18.57
2019-02-06T12:19:08.634Z,17.42
2019-02-06T12:22:15.601Z,18.62
2019-02-06T12:25:22.901Z,17.52
2019-02-06T12:28:29.845Z,25.15
2019-02-06T12:31:36.899Z,18.80
2019-02-06T12:34:44.134Z,18.62
2019-02-06T12:37:51.045Z,18.50
2019-02-06T12:40:58.727Z,20.88
2019-02-06T12:44:05.884Z,18.35
2019-02-06T12:47:12.776Z,18.87
2019-02-06T12:50:23.096Z,19.20
2019-02-06T12:53:30.039Z,22.75
2019-02-06T12:56:37.875Z,21.65
2019-02-06T12:59:44.934Z,19.87
2019-02-06T13:02:52.328Z,17.52
2019-02-06T13:05:59.714Z,17.77
2019-02-06T13:09:10.659Z,17.45
2019-02-06T13:12:17.685Z,17.73
2019-02-06T13:15:24.740Z,18.30
2019-02-06T13:18:32.088Z,19.02
2019-02-06T13:21:39.138Z,18.07
2019-02-06T13:24:46.121Z,17.67
2019-02-06T13:27:53.248Z,18.60
2019-02-06T13:31:01.470Z,18.70
2019-02-06T13:34:08.465Z,20.88
2019-02-06T13:37:15.425Z,19.45
2019-02-06T13:40:24.607Z,18.75
2019-02-06T13:43:32.546Z,23.70
2019-02-06T13:46:39.385Z,20.55
2019-02-06T13:49:46.954Z,18.23
2019-02-06T13:52:54.447Z,24.10
2019-02-06T13:56:01.521Z,25.60
2019-02-06T13:59:08.746Z,20.72
2019-02-06T14:02:15.694Z,27.50
2019-02-06T14:05:26.866Z,21.40
2019-02-06T14:08:34.583Z,22.85
2019-02-06T14:11:41.519Z,18.35
2019-02-06T14:14:48.751Z,19.52
2019-02-06T14:17:55.776Z,17.80
2019-02-06T14:21:02.726Z,18.67
2019-02-06T14:24:40.162Z,18.30
2019-02-06T14:29:03.679Z,19.75
2019-02-06T14:32:51.105Z,17.82
2019-02-06T14:37:19.217Z,18.30
2019-02-06T14:41:23.065Z,17.65
2019-02-06T14:45:17.907Z,19.30
2019-02-06T14:49:33.389Z,22.70
2019-02-06T14:53:39.632Z,21.48
2019-02-06T14:57:10.519Z,22.32
2019-02-06T15:00:59.274Z,20.20
2019-02-06T15:04:51.718Z,19.42
2019-02-06T15:08:56.645Z,20.80
2019-02-06T15:13:03.152Z,18.52
2019-02-06T15:17:03.089Z,18.10
2019-02-06T15:20:52.476Z,17.95
2019-02-06T15:25:06.279Z,20.37
2019-02-06T15:29:18.671Z,19.30
2019-02-06T15:33:20.901Z,22.75
2019-02-06T15:36:49.295Z,31.90
2019-02-06T15:40:40.410Z,22.37
2019-02-06T15:44:07.414Z,22.50
2019-02-06T15:47:51.939Z,18.60
2019-02-06T15:51:41.875Z,21.35
2019-02-06T15:56:17.659Z,20.45
2019-02-06T16:00:09.051Z,23.95
2019-02-06T16:04:15.903Z,21.02
2019-02-06T16:07:58.758Z,18.60
2019-02-06T16:11:51.693Z,17.87
2019-02-06T16:16:04.152Z,20.23
2019-02-06T16:20:05.189Z,19.67
2019-02-06T16:24:03.205Z,19.30
2019-02-06T16:27:26.196Z,18.05
2019-02-06T16:31:18.460Z,17.90
2019-02-06T16:35:36.397Z,20.92
2019-02-06T16:39:07.268Z,20.48
2019-02-06T16:43:04.425Z,19.50
2019-02-06T16:46:53.330Z,18.65
2019-02-06T16:50:37.845Z,17.55
2019-02-06T16:54:52.520Z,20.60
2019-02-06T16:59:05.456Z,20.17
2019-02-06T17:03:29.552Z,23.83
2019-02-06T17:07:28.524Z,21.75
2019-02-06T17:11:05.268Z,21.55
2019-02-06T17:15:28.907Z,18.12
2019-02-06T17:19:26.822Z,20.90
2019-02-06T17:23:14.633Z,19.80
2019-02-06T17:26:48.842Z,17.87
2019-02-06T17:30:45.396Z,20.75
2019-02-06T17:34:47.619Z,20.90
2019-02-06T17:39:11.804Z,21.42
2019-02-06T17:43:31.075Z,22.80
2019-02-06T17:47:43.698Z,20.30
2019-02-06T17:51:48.447Z,24.92
2019-02-06T17:55:22.233Z,22.10
2019-02-06T17:58:36.207Z,23.27
2019-02-06T18:01:55.401Z,26.70
2019-02-06T18:05:02.343Z,25.90
2019-02-06T18:08:09.591Z,21.65
2019-02-06T18:11:16.817Z,20.60
2019-02-06T18:14:23.990Z,18.92
2019-02-06T18:17:31.327Z,20.65
2019-02-06T18:20:38.354Z,19.77
2019-02-06T18:23:46.475Z,24.30
2019-02-06T18:26:53.886Z,20.35
2019-02-06T18:30:01.080Z,19.80
2019-02-06T18:33:08.365Z,19.12
2019-02-06T18:36:15.367Z,23.12
2019-02-06T18:39:22.490Z,20.48
2019-02-06T18:42:36.856Z,22.80
2019-02-06T18:45:38.196Z,18.60
2019-02-06T18:48:45.297Z,26.50
2019-02-06T18:51:52.577Z,23.15
2019-02-06T18:55:00.951Z,20.15
2019-02-06T18:58:11.214Z,20.08
2019-02-06T19:01:18.819Z,19.87
2019-02-06T19:04:36.384Z,18.30
2019-02-06T19:07:43.843Z,18.70
2019-02-06T19:10:50.875Z,20.95
2019-02-06T19:13:58.456Z,19.10
2019-02-06T19:17:07.766Z,17.85
2019-02-06T19:20:16.804Z,18.00
2019-02-06T19:23:23.692Z,23.25
2019-02-06T19:26:32.350Z,18.92
2019-02-06T19:29:40.964Z,20.88
2019-02-06T19:32:50.098Z,20.57
2019-02-06T19:35:58.227Z,25.62
2019-02-06T19:39:08.937Z,20.70
2019-02-06T19:42:16.013Z,19.35
2019-02-06T19:45:23.025Z,21.05
2019-02-06T19:48:30.145Z,24.10
2019-02-06T19:51:37.250Z,19.62
2019-02-06T19:54:46.188Z,18.37
2019-02-06T19:57:53.374Z,19.30
2019-02-06T20:01:00.564Z,22.32
2019-02-06T20:04:07.582Z,26.85
2019-02-06T20:07:14.937Z,21.85
2019-02-06T20:10:26.155Z,22.05
2019-02-06T20:13:33.198Z,23.70
2019-02-06T20:16:43.173Z,23.20
2019-02-06T20:19:51.664Z,21.77
2019-02-06T20:22:59.414Z,30.52
2019-02-06T20:26:06.564Z,25.57
2019-02-06T20:29:13.696Z,24.63
2019-02-06T20:32:20.768Z,21.68
2019-02-06T20:35:27.983Z,23.27
2019-02-06T20:38:35.800Z,24.40
2019-02-06T20:41:42.768Z,20.15
2019-02-06T20:44:49.839Z,21.35
2019-02-06T20:47:56.993Z,21.20
2019-02-06T20:51:04.142Z,19.77
2019-02-06T20:54:11.178Z,21.73
2019-02-06T20:57:18.526Z,19.90
2019-02-06T21:00:37.698Z,22.52
2019-02-06T21:03:44.731Z,20.48
2019-02-06T21:06:51.766Z,17.65
2019-02-06T21:09:58.659Z,20.23
2019-02-06T21:13:07.072Z,18.05
2019-02-06T21:16:14.361Z,18.82
2019-02-06T21:19:21.274Z,23.52
2019-02-06T21:22:28.674Z,19.32
2019-02-06T21:25:35.838Z,18.95
2019-02-06T21:28:42.869Z,19.92
2019-02-06T21:31:50.111Z,19.10
2019-02-06T21:34:57.073Z,18.30
2019-02-06T21:38:06.999Z,17.82
2019-02-06T21:41:16.851Z,17.67
2019-02-06T21:44:26.828Z,19.35
2019-02-06T21:47:33.782Z,17.20
2019-02-06T21:50:40.905Z,20.00
2019-02-06T21:53:49.034Z,18.75
2019-02-06T21:56:56.137Z,20.97
2019-02-06T22:00:07.612Z,19.10
2019-02-06T22:03:14.982Z,17.75
2019-02-06T22:06:22.036Z,18.10
2019-02-06T22:09:29.087Z,17.30
2019-02-06T22:12:36.206Z,17.57
2019-02-06T22:15:43.226Z,17.67
2019-02-06T22:18:50.521Z,17.42
2019-02-06T22:21:57.515Z,17.35
2019-02-06T22:25:05.021Z,17.40
2019-02-06T22:28:12.320Z,17.98
2019-02-06T22:31:19.302Z,17.70
2019-02-06T22:34:26.578Z,18.73
2019-02-06T22:37:34.679Z,18.65
2019-02-06T22:40:41.781Z,17.73
2019-02-06T22:43:49.502Z,17.73
2019-02-06T22:46:56.480Z,19.05
2019-02-06T22:50:05.680Z,17.50
2019-02-06T22:53:13.029Z,17.62
2019-02-06T22:56:20.248Z,19.57
2019-02-06T22:59:27.398Z,17.75
2019-02-06T23:02:34.637Z,19.45
2019-02-06T23:05:41.885Z,19.52
2019-02-06T23:08:49.036Z,19.07
2019-02-06T23:11:56.106Z,19.20
2019-02-06T23:15:03.372Z,20.08
2019-02-06T23:18:10.511Z,18.30
2019-02-06T23:21:17.484Z,19.30
2019-02-06T23:24:25.093Z,18.10
2019-02-06T23:27:32.484Z,17.98
2019-02-06T23:30:39.961Z,21.42
2019-02-06T23:33:46.935Z,19.92
2019-02-06T23:36:55.677Z,18.70
2019-02-06T23:40:02.641Z,19.62
2019-02-06T23:43:09.879Z,17.35
2019-02-06T23:46:16.912Z,17.90
2019-02-06T23:49:24.072Z,17.45
2019-02-06T23:52:31.422Z,18.48
2019-02-06T23:55:38.524Z,18.62
2019-02-06T23:58:45.564Z,18.42
